sensor_id;sensor_type;location;lat;lon;timestamp;pressure;altitude;pressure_sealevel;temperature;humidity
59545;BME280;45368;55.002;-1.592;2022-10-23T00:01:47;100003.10;;;14.20;57.78
59545;BME280;45368;55.002;-1.592;2022-10-23T00:04:16;100002.70;;;13.89;58.50
59545;BME280;45368;55.002;-1.592;2022-10-23T00:06:44;99997.50;;;13.78;58.58
59545;BME280;45368;55.002;-1.592;2022-10-23T00:09:14;99994.78;;;14.05;58.19
59545;BME280;45368;55.002;-1.592;2022-10-23T00:11:42;100001.99;;;12.98;60.34
59545;BME280;45368;55.002;-1.592;2022-10-23T00:14:10;99991.01;;;14.02;57.26
59545;BME280;45368;55.002;-1.592;2022-10-23T00:16:37;99996.22;;;14.31;56.79
59545;BME280;45368;55.002;-1.592;2022-10-23T00:19:05;99997.80;;;14.87;55.72
59545;BME280;45368;55.002;-1.592;2022-10-23T00:21:34;100000.36;;;15.35;54.29
59545;BME280;45368;55.002;-1.592;2022-10-23T00:24:02;100000.39;;;15.49;53.99
59545;BME280;45368;55.002;-1.592;2022-10-23T00:26:29;100003.42;;;15.97;53.46
59545;BME280;45368;55.002;-1.592;2022-10-23T00:28:56;100010.30;;;15.63;52.96
59545;BME280;45368;55.002;-1.592;2022-10-23T00:31:23;100012.04;;;14.75;55.19
59545;BME280;45368;55.002;-1.592;2022-10-23T00:33:51;100012.04;;;14.63;55.88
59545;BME280;45368;55.002;-1.592;2022-10-23T00:36:20;100018.87;;;14.88;55.59
59545;BME280;45368;55.002;-1.592;2022-10-23T00:38:49;100028.51;;;15.03;54.86
59545;BME280;45368;55.002;-1.592;2022-10-23T00:41:19;100027.90;;;14.00;56.73
59545;BME280;45368;55.002;-1.592;2022-10-23T00:43:57;100026.09;;;13.11;60.48
59545;BME280;45368;55.002;-1.592;2022-10-23T00:46:25;100019.52;;;13.46;59.65
59545;BME280;45368;55.002;-1.592;2022-10-23T00:48:52;100019.62;;;12.90;61.28
59545;BME280;45368;55.002;-1.592;2022-10-23T00:51:20;100023.50;;;12.39;63.05
59545;BME280;45368;55.002;-1.592;2022-10-23T00:53:49;100024.37;;;12.07;63.91
59545;BME280;45368;55.002;-1.592;2022-10-23T00:56:18;100020.84;;;12.40;63.06
59545;BME280;45368;55.002;-1.592;2022-10-23T00:58:46;100020.24;;;13.11;61.28
59545;BME280;45368;55.002;-1.592;2022-10-23T01:01:16;100020.81;;;12.58;62.46
59545;BME280;45368;55.002;-1.592;2022-10-23T01:03:44;100017.01;;;12.99;61.10
59545;BME280;45368;55.002;-1.592;2022-10-23T01:06:18;100016.89;;;12.89;61.78
59545;BME280;45368;55.002;-1.592;2022-10-23T01:08:51;100010.86;;;12.70;62.66
59545;BME280;45368;55.002;-1.592;2022-10-23T01:11:25;100009.57;;;12.90;62.24
59545;BME280;45368;55.002;-1.592;2022-10-23T01:14:00;100005.15;;;12.88;62.24
59545;BME280;45368;55.002;-1.592;2022-10-23T01:16:35;100007.83;;;12.02;64.42
59545;BME280;45368;55.002;-1.592;2022-10-23T01:19:12;100006.42;;;12.11;64.60
59545;BME280;45368;55.002;-1.592;2022-10-23T01:21:53;100005.57;;;11.85;65.08
59545;BME280;45368;55.002;-1.592;2022-10-23T01:24:33;100002.45;;;12.14;64.64
59545;BME280;45368;55.002;-1.592;2022-10-23T01:27:36;99996.43;;;12.92;62.90
59545;BME280;45368;55.002;-1.592;2022-10-23T01:30:08;100000.47;;;12.83;62.90
59545;BME280;45368;55.002;-1.592;2022-10-23T01:32:43;99998.19;;;12.41;62.92
59545;BME280;45368;55.002;-1.592;2022-10-23T01:35:13;99994.30;;;12.61;63.67
59545;BME280;45368;55.002;-1.592;2022-10-23T01:37:44;99990.08;;;12.81;62.72
59545;BME280;45368;55.002;-1.592;2022-10-23T01:40:28;99990.49;;;12.86;61.86
59545;BME280;45368;55.002;-1.592;2022-10-23T01:43:00;99983.91;;;13.41;60.75
59545;BME280;45368;55.002;-1.592;2022-10-23T01:45:35;99977.75;;;13.58;60.38
59545;BME280;45368;55.002;-1.592;2022-10-23T01:48:20;99968.15;;;13.84;59.77
59545;BME280;45368;55.002;-1.592;2022-10-23T01:50:48;99969.57;;;13.46;59.91
59545;BME280;45368;55.002;-1.592;2022-10-23T01:53:17;99966.79;;;12.69;61.67
59545;BME280;45368;55.002;-1.592;2022-10-23T01:55:46;99965.32;;;13.29;61.12
59545;BME280;45368;55.002;-1.592;2022-10-23T01:58:14;99966.83;;;13.00;61.93
59545;BME280;45368;55.002;-1.592;2022-10-23T02:00:44;99961.93;;;12.77;63.62
59545;BME280;45368;55.002;-1.592;2022-10-23T02:03:15;99958.93;;;13.09;62.98
59545;BME280;45368;55.002;-1.592;2022-10-23T02:05:44;99957.26;;;12.50;64.43
59545;BME280;45368;55.002;-1.592;2022-10-23T02:08:11;99958.04;;;11.93;66.05
59545;BME280;45368;55.002;-1.592;2022-10-23T02:10:43;99954.53;;;12.12;65.53
59545;BME280;45368;55.002;-1.592;2022-10-23T02:13:20;99956.59;;;12.17;65.55
59545;BME280;45368;55.002;-1.592;2022-10-23T02:15:55;99950.32;;;12.45;66.06
59545;BME280;45368;55.002;-1.592;2022-10-23T02:18:32;99947.37;;;11.89;67.56
59545;BME280;45368;55.002;-1.592;2022-10-23T02:21:08;99944.13;;;11.45;68.86
59545;BME280;45368;55.002;-1.592;2022-10-23T02:23:38;99943.70;;;12.00;67.45
59545;BME280;45368;55.002;-1.592;2022-10-23T02:26:08;99944.94;;;11.84;66.49
59545;BME280;45368;55.002;-1.592;2022-10-23T02:28:41;99945.32;;;12.72;64.46
59545;BME280;45368;55.002;-1.592;2022-10-23T02:31:13;99942.36;;;12.56;64.59
59545;BME280;45368;55.002;-1.592;2022-10-23T02:33:43;99944.70;;;12.86;64.09
59545;BME280;45368;55.002;-1.592;2022-10-23T02:36:11;99943.77;;;12.49;64.52
59545;BME280;45368;55.002;-1.592;2022-10-23T02:38:41;99938.91;;;12.36;66.07
59545;BME280;45368;55.002;-1.592;2022-10-23T02:41:18;99936.56;;;12.84;64.39
59545;BME280;45368;55.002;-1.592;2022-10-23T02:43:59;99934.35;;;12.59;64.93
59545;BME280;45368;55.002;-1.592;2022-10-23T02:46:35;99929.15;;;12.67;64.68
59545;BME280;45368;55.002;-1.592;2022-10-23T02:49:13;99920.18;;;12.72;64.68
59545;BME280;45368;55.002;-1.592;2022-10-23T02:51:54;99915.98;;;11.77;67.15
59545;BME280;45368;55.002;-1.592;2022-10-23T02:54:33;99908.59;;;11.74;67.17
59545;BME280;45368;55.002;-1.592;2022-10-23T02:57:15;99899.29;;;12.11;66.71
59545;BME280;45368;55.002;-1.592;2022-10-23T02:59:51;99896.57;;;11.83;68.58
59545;BME280;45368;55.002;-1.592;2022-10-23T03:02:25;99896.63;;;11.93;68.51
59545;BME280;45368;55.002;-1.592;2022-10-23T03:04:55;99892.79;;;10.98;71.10
59545;BME280;45368;55.002;-1.592;2022-10-23T03:07:25;99888.97;;;11.52;69.95
59545;BME280;45368;55.002;-1.592;2022-10-23T03:09:53;99887.92;;;11.45;69.93
59545;BME280;45368;55.002;-1.592;2022-10-23T03:12:20;99887.69;;;11.49;70.04
59545;BME280;45368;55.002;-1.592;2022-10-23T03:14:47;99891.45;;;11.10;70.97
59545;BME280;45368;55.002;-1.592;2022-10-23T03:17:15;99890.17;;;11.96;67.86
59545;BME280;45368;55.002;-1.592;2022-10-23T03:19:42;99889.86;;;12.49;66.67
59545;BME280;45368;55.002;-1.592;2022-10-23T03:22:10;99886.95;;;12.68;65.94
59545;BME280;45368;55.002;-1.592;2022-10-23T03:24:38;99894.27;;;13.34;64.35
59545;BME280;45368;55.002;-1.592;2022-10-23T03:27:05;99891.21;;;13.83;62.84
59545;BME280;45368;55.002;-1.592;2022-10-23T03:29:32;99882.76;;;14.02;61.53
59545;BME280;45368;55.002;-1.592;2022-10-23T03:32:00;99881.45;;;13.72;61.26
59545;BME280;45368;55.002;-1.592;2022-10-23T03:34:27;99884.11;;;14.72;59.72
59545;BME280;45368;55.002;-1.592;2022-10-23T03:36:54;99878.53;;;14.61;58.46
59545;BME280;45368;55.002;-1.592;2022-10-23T03:39:21;99885.19;;;15.27;57.31
59545;BME280;45368;55.002;-1.592;2022-10-23T03:41:49;99886.33;;;14.83;57.58
59545;BME280;45368;55.002;-1.592;2022-10-23T03:44:16;99895.37;;;14.04;59.08
59545;BME280;45368;55.002;-1.592;2022-10-23T03:46:44;99893.97;;;15.03;57.19
59545;BME280;45368;55.002;-1.592;2022-10-23T03:49:11;99903.93;;;14.24;59.33
59545;BME280;45368;55.002;-1.592;2022-10-23T03:51:39;99900.24;;;14.38;59.16
59545;BME280;45368;55.002;-1.592;2022-10-23T03:54:06;99896.11;;;13.88;60.55
59545;BME280;45368;55.002;-1.592;2022-10-23T03:56:33;99898.86;;;13.57;61.24
59545;BME280;45368;55.002;-1.592;2022-10-23T03:59:01;99901.13;;;13.41;61.04
59545;BME280;45368;55.002;-1.592;2022-10-23T04:01:28;99899.77;;;13.44;61.54
59545;BME280;45368;55.002;-1.592;2022-10-23T04:03:56;99898.77;;;13.90;61.73
59545;BME280;45368;55.002;-1.592;2022-10-23T04:06:23;99887.85;;;13.85;61.21
59545;BME280;45368;55.002;-1.592;2022-10-23T04:08:50;99884.54;;;13.63;62.26
59545;BME280;45368;55.002;-1.592;2022-10-23T04:11:17;99886.33;;;13.53;62.65
59545;BME280;45368;55.002;-1.592;2022-10-23T04:13:45;99884.04;;;13.26;64.05
59545;BME280;45368;55.002;-1.592;2022-10-23T04:16:12;99874.87;;;13.39;62.72
59545;BME280;45368;55.002;-1.592;2022-10-23T04:18:40;99876.20;;;13.11;64.05
59545;BME280;45368;55.002;-1.592;2022-10-23T04:21:07;99872.51;;;13.37;63.60
59545;BME280;45368;55.002;-1.592;2022-10-23T04:23:34;99866.52;;;13.69;62.68
59545;BME280;45368;55.002;-1.592;2022-10-23T04:26:02;99864.11;;;13.18;63.48
59545;BME280;45368;55.002;-1.592;2022-10-23T04:28:29;99866.81;;;12.60;65.34
59545;BME280;45368;55.002;-1.592;2022-10-23T04:30:56;99859.68;;;13.95;62.20
59545;BME280;45368;55.002;-1.592;2022-10-23T04:33:24;99857.11;;;13.25;63.25
59545;BME280;45368;55.002;-1.592;2022-10-23T04:35:52;99860.23;;;14.10;61.87
59545;BME280;45368;55.002;-1.592;2022-10-23T04:38:19;99867.00;;;13.41;62.78
59545;BME280;45368;55.002;-1.592;2022-10-23T04:40:47;99869.69;;;12.66;64.99
59545;BME280;45368;55.002;-1.592;2022-10-23T04:43:14;99861.52;;;13.43;62.06
59545;BME280;45368;55.002;-1.592;2022-10-23T04:45:42;99856.59;;;14.16;60.59
59545;BME280;45368;55.002;-1.592;2022-10-23T04:48:09;99859.73;;;14.55;60.47
59545;BME280;45368;55.002;-1.592;2022-10-23T04:50:36;99863.85;;;13.81;62.12
59545;BME280;45368;55.002;-1.592;2022-10-23T04:53:04;99863.92;;;13.58;62.51
59545;BME280;45368;55.002;-1.592;2022-10-23T04:55:31;99860.40;;;13.25;64.17
59545;BME280;45368;55.002;-1.592;2022-10-23T04:57:58;99851.25;;;13.42;63.70
59545;BME280;45368;55.002;-1.592;2022-10-23T05:00:25;99845.17;;;14.04;62.45
59545;BME280;45368;55.002;-1.592;2022-10-23T05:02:52;99848.24;;;13.93;62.23
59545;BME280;45368;55.002;-1.592;2022-10-23T05:05:19;99850.55;;;13.63;62.81
59545;BME280;45368;55.002;-1.592;2022-10-23T05:07:46;99846.38;;;13.73;62.73
59545;BME280;45368;55.002;-1.592;2022-10-23T05:10:13;99848.02;;;13.25;63.92
59545;BME280;45368;55.002;-1.592;2022-10-23T05:12:40;99842.12;;;14.02;62.02
59545;BME280;45368;55.002;-1.592;2022-10-23T05:15:07;99842.99;;;13.80;62.45
59545;BME280;45368;55.002;-1.592;2022-10-23T05:17:36;99847.30;;;13.14;64.41
59545;BME280;45368;55.002;-1.592;2022-10-23T05:20:09;99848.73;;;12.58;66.00
59545;BME280;45368;55.002;-1.592;2022-10-23T05:22:40;99852.01;;;12.64;67.04
59545;BME280;45368;55.002;-1.592;2022-10-23T05:25:09;99853.72;;;12.13;67.68
59545;BME280;45368;55.002;-1.592;2022-10-23T05:27:36;99851.05;;;12.42;67.90
59545;BME280;45368;55.002;-1.592;2022-10-23T05:30:05;99850.18;;;12.65;67.95
59545;BME280;45368;55.002;-1.592;2022-10-23T05:32:33;99850.80;;;12.41;68.05
59545;BME280;45368;55.002;-1.592;2022-10-23T05:35:04;99850.26;;;12.52;67.82
59545;BME280;45368;55.002;-1.592;2022-10-23T05:37:33;99847.36;;;11.99;68.78
59545;BME280;45368;55.002;-1.592;2022-10-23T05:40:03;99847.87;;;12.07;70.26
59545;BME280;45368;55.002;-1.592;2022-10-23T05:42:30;99851.73;;;11.93;70.72
59545;BME280;45368;55.002;-1.592;2022-10-23T05:44:58;99848.87;;;11.79;71.37
59545;BME280;45368;55.002;-1.592;2022-10-23T05:47:25;99850.53;;;11.57;72.13
59545;BME280;45368;55.002;-1.592;2022-10-23T05:49:52;99857.31;;;11.67;71.25
59545;BME280;45368;55.002;-1.592;2022-10-23T05:52:20;99851.29;;;10.96;75.00
59545;BME280;45368;55.002;-1.592;2022-10-23T05:54:48;99846.33;;;11.95;71.22
59545;BME280;45368;55.002;-1.592;2022-10-23T05:57:16;99843.97;;;12.16;70.10
59545;BME280;45368;55.002;-1.592;2022-10-23T05:59:43;99843.08;;;11.45;73.78
59545;BME280;45368;55.002;-1.592;2022-10-23T06:02:11;99841.23;;;11.95;71.86
59545;BME280;45368;55.002;-1.592;2022-10-23T06:04:38;99832.92;;;12.08;71.39
59545;BME280;45368;55.002;-1.592;2022-10-23T06:07:05;99827.71;;;12.57;68.97
59545;BME280;45368;55.002;-1.592;2022-10-23T06:09:33;99813.53;;;13.04;67.69
59545;BME280;45368;55.002;-1.592;2022-10-23T06:12:00;99801.66;;;12.82;67.81
59545;BME280;45368;55.002;-1.592;2022-10-23T06:14:28;99802.24;;;12.84;68.02
59545;BME280;45368;55.002;-1.592;2022-10-23T06:16:55;99803.95;;;12.70;68.47
59545;BME280;45368;55.002;-1.592;2022-10-23T06:19:22;99805.88;;;12.56;68.74
59545;BME280;45368;55.002;-1.592;2022-10-23T06:21:49;99799.58;;;12.97;67.30
59545;BME280;45368;55.002;-1.592;2022-10-23T06:24:16;99796.53;;;12.64;68.53
59545;BME280;45368;55.002;-1.592;2022-10-23T06:26:44;99795.20;;;11.99;70.00
59545;BME280;45368;55.002;-1.592;2022-10-23T06:29:11;99788.48;;;12.14;69.67
59545;BME280;45368;55.002;-1.592;2022-10-23T06:31:38;99790.43;;;12.57;69.37
59545;BME280;45368;55.002;-1.592;2022-10-23T06:34:06;99784.68;;;13.35;66.90
59545;BME280;45368;55.002;-1.592;2022-10-23T06:36:36;99782.99;;;12.99;67.06
59545;BME280;45368;55.002;-1.592;2022-10-23T06:39:04;99775.53;;;13.31;66.18
59545;BME280;45368;55.002;-1.592;2022-10-23T06:41:31;99772.17;;;14.05;64.57
59545;BME280;45368;55.002;-1.592;2022-10-23T06:43:58;99771.12;;;13.65;66.03
59545;BME280;45368;55.002;-1.592;2022-10-23T06:46:26;99770.14;;;13.46;66.05
59545;BME280;45368;55.002;-1.592;2022-10-23T06:48:53;99776.19;;;13.29;65.86
59545;BME280;45368;55.002;-1.592;2022-10-23T06:51:20;99769.42;;;13.59;65.11
59545;BME280;45368;55.002;-1.592;2022-10-23T06:53:47;99767.51;;;13.53;64.93
59545;BME280;45368;55.002;-1.592;2022-10-23T06:56:15;99773.94;;;12.70;67.01
59545;BME280;45368;55.002;-1.592;2022-10-23T06:58:42;99767.92;;;13.43;66.47
59545;BME280;45368;55.002;-1.592;2022-10-23T07:01:11;99770.84;;;13.47;66.42
59545;BME280;45368;55.002;-1.592;2022-10-23T07:03:39;99777.90;;;12.94;67.70
59545;BME280;45368;55.002;-1.592;2022-10-23T07:06:08;99780.53;;;12.24;69.75
59545;BME280;45368;55.002;-1.592;2022-10-23T07:08:36;99773.78;;;12.60;70.27
59545;BME280;45368;55.002;-1.592;2022-10-23T07:11:04;99770.46;;;12.40;70.92
59545;BME280;45368;55.002;-1.592;2022-10-23T07:13:33;99762.37;;;12.36;70.09
59545;BME280;45368;55.002;-1.592;2022-10-23T07:16:10;99761.07;;;12.55;69.29
59545;BME280;45368;55.002;-1.592;2022-10-23T07:18:37;99757.99;;;13.10;68.10
59545;BME280;45368;55.002;-1.592;2022-10-23T07:21:05;99757.67;;;13.16;67.56
59545;BME280;45368;55.002;-1.592;2022-10-23T07:23:32;99749.31;;;13.73;66.02
59545;BME280;45368;55.002;-1.592;2022-10-23T07:26:03;99751.62;;;13.91;64.38
59545;BME280;45368;55.002;-1.592;2022-10-23T07:28:31;99752.89;;;14.31;63.88
59545;BME280;45368;55.002;-1.592;2022-10-23T07:30:59;99753.16;;;14.61;63.24
59545;BME280;45368;55.002;-1.592;2022-10-23T07:33:27;99764.57;;;13.64;65.26
59545;BME280;45368;55.002;-1.592;2022-10-23T07:35:55;99775.46;;;13.26;66.76
59545;BME280;45368;55.002;-1.592;2022-10-23T07:38:22;99779.67;;;12.24;69.82
59545;BME280;45368;55.002;-1.592;2022-10-23T07:40:49;99773.08;;;13.05;68.26
59545;BME280;45368;55.002;-1.592;2022-10-23T07:43:16;99779.70;;;12.10;71.08
59545;BME280;45368;55.002;-1.592;2022-10-23T07:45:47;99775.46;;;12.32;71.45
59545;BME280;45368;55.002;-1.592;2022-10-23T07:48:15;99770.84;;;12.13;71.51
59545;BME280;45368;55.002;-1.592;2022-10-23T07:50:43;99769.15;;;12.65;69.74
59545;BME280;45368;55.002;-1.592;2022-10-23T07:53:15;99768.97;;;13.40;67.73
59545;BME280;45368;55.002;-1.592;2022-10-23T07:55:43;99766.57;;;13.54;65.91
59545;BME280;45368;55.002;-1.592;2022-10-23T07:58:11;99764.67;;;13.72;65.65
59545;BME280;45368;55.002;-1.592;2022-10-23T08:00:39;99751.99;;;14.42;63.58
59545;BME280;45368;55.002;-1.592;2022-10-23T08:03:06;99742.93;;;14.94;61.80
59545;BME280;45368;55.002;-1.592;2022-10-23T08:05:34;99741.10;;;15.00;61.62
59545;BME280;45368;55.002;-1.592;2022-10-23T08:08:01;99736.21;;;15.35;60.59
59545;BME280;45368;55.002;-1.592;2022-10-23T08:10:29;99729.44;;;15.52;60.28
59545;BME280;45368;55.002;-1.592;2022-10-23T08:12:56;99726.92;;;15.62;59.63
59545;BME280;45368;55.002;-1.592;2022-10-23T08:15:23;99721.34;;;15.63;59.86
59545;BME280;45368;55.002;-1.592;2022-10-23T08:17:50;99716.91;;;14.97;61.13
59545;BME280;45368;55.002;-1.592;2022-10-23T08:20:18;99716.29;;;15.13;60.56
59545;BME280;45368;55.002;-1.592;2022-10-23T08:22:44;99714.75;;;15.19;60.43
59545;BME280;45368;55.002;-1.592;2022-10-23T08:25:12;99710.10;;;14.92;60.94
59545;BME280;45368;55.002;-1.592;2022-10-23T08:27:39;99706.30;;;15.31;60.24
59545;BME280;45368;55.002;-1.592;2022-10-23T08:30:07;99717.17;;;14.91;61.87
59545;BME280;45368;55.002;-1.592;2022-10-23T08:32:34;99715.60;;;14.52;61.75
59545;BME280;45368;55.002;-1.592;2022-10-23T08:35:01;99713.08;;;14.44;61.87
59545;BME280;45368;55.002;-1.592;2022-10-23T08:37:29;99717.80;;;14.41;62.36
59545;BME280;45368;55.002;-1.592;2022-10-23T08:39:56;99712.37;;;14.56;63.64
59545;BME280;45368;55.002;-1.592;2022-10-23T08:42:25;99701.92;;;13.81;64.60
59545;BME280;45368;55.002;-1.592;2022-10-23T08:45:00;99702.23;;;13.98;64.61
59545;BME280;45368;55.002;-1.592;2022-10-23T08:47:35;99706.14;;;14.48;63.64
59545;BME280;45368;55.002;-1.592;2022-10-23T08:50:13;99714.48;;;13.99;64.97
59545;BME280;45368;55.002;-1.592;2022-10-23T08:52:45;99709.91;;;14.18;64.54
59545;BME280;45368;55.002;-1.592;2022-10-23T08:55:17;99703.58;;;14.31;63.67
59545;BME280;45368;55.002;-1.592;2022-10-23T08:57:54;99703.83;;;14.22;63.89
59545;BME280;45368;55.002;-1.592;2022-10-23T09:00:24;99703.64;;;14.38;64.51
59545;BME280;45368;55.002;-1.592;2022-10-23T09:02:53;99702.68;;;13.49;66.96
59545;BME280;45368;55.002;-1.592;2022-10-23T09:05:26;99698.02;;;13.64;66.23
59545;BME280;45368;55.002;-1.592;2022-10-23T09:08:10;99699.50;;;12.98;68.47
59545;BME280;45368;55.002;-1.592;2022-10-23T09:10:55;99703.13;;;13.09;68.31
59545;BME280;45368;55.002;-1.592;2022-10-23T09:13:39;99699.86;;;12.88;68.84
59545;BME280;45368;55.002;-1.592;2022-10-23T09:16:16;99701.25;;;12.96;70.44
59545;BME280;45368;55.002;-1.592;2022-10-23T09:18:47;99700.17;;;12.85;69.73
59545;BME280;45368;55.002;-1.592;2022-10-23T09:21:15;99701.80;;;12.68;69.94
59545;BME280;45368;55.002;-1.592;2022-10-23T09:23:43;99700.52;;;12.24;71.49
59545;BME280;45368;55.002;-1.592;2022-10-23T09:26:14;99695.52;;;12.83;69.92
59545;BME280;45368;55.002;-1.592;2022-10-23T09:28:46;99694.53;;;12.66;71.65
59545;BME280;45368;55.002;-1.592;2022-10-23T09:31:14;99693.56;;;12.44;71.15
59545;BME280;45368;55.002;-1.592;2022-10-23T09:33:53;99688.85;;;13.43;69.19
59545;BME280;45368;55.002;-1.592;2022-10-23T09:36:21;99685.72;;;13.00;70.11
59545;BME280;45368;55.002;-1.592;2022-10-23T09:38:50;99691.25;;;12.94;71.35
59545;BME280;45368;55.002;-1.592;2022-10-23T09:41:21;99687.25;;;12.55;71.86
59545;BME280;45368;55.002;-1.592;2022-10-23T09:43:59;99680.96;;;13.02;70.03
59545;BME280;45368;55.002;-1.592;2022-10-23T09:46:37;99683.69;;;13.12;69.77
59545;BME280;45368;55.002;-1.592;2022-10-23T09:49:05;99692.53;;;12.71;71.24
59545;BME280;45368;55.002;-1.592;2022-10-23T09:51:50;99694.86;;;12.52;72.54
59545;BME280;45368;55.002;-1.592;2022-10-23T09:54:21;99691.86;;;12.23;73.31
59545;BME280;45368;55.002;-1.592;2022-10-23T09:56:49;99683.21;;;12.42;73.27
59545;BME280;45368;55.002;-1.592;2022-10-23T09:59:23;99673.74;;;12.80;71.52
59545;BME280;45368;55.002;-1.592;2022-10-23T10:01:53;99668.05;;;13.11;71.72
59545;BME280;45368;55.002;-1.592;2022-10-23T10:04:32;99666.48;;;12.72;72.97
59545;BME280;45368;55.002;-1.592;2022-10-23T10:07:01;99664.93;;;12.40;74.56
59545;BME280;45368;55.002;-1.592;2022-10-23T10:09:29;99655.03;;;12.89;71.67
59545;BME280;45368;55.002;-1.592;2022-10-23T10:12:18;99653.97;;;12.59;72.95
59545;BME280;45368;55.002;-1.592;2022-10-23T10:14:54;99646.96;;;12.48;72.77
59545;BME280;45368;55.002;-1.592;2022-10-23T10:17:35;99641.42;;;13.16;71.66
59545;BME280;45368;55.002;-1.592;2022-10-23T10:20:19;99638.01;;;13.26;71.77
59545;BME280;45368;55.002;-1.592;2022-10-23T10:22:54;99628.56;;;12.83;73.04
59545;BME280;45368;55.002;-1.592;2022-10-23T10:25:29;99626.87;;;13.56;71.01
59545;BME280;45368;55.002;-1.592;2022-10-23T10:28:15;99617.04;;;13.69;69.46
59545;BME280;45368;55.002;-1.592;2022-10-23T10:30:52;99603.40;;;13.46;69.61
59545;BME280;45368;55.002;-1.592;2022-10-23T10:33:28;99600.61;;;13.98;68.71
59545;BME280;45368;55.002;-1.592;2022-10-23T10:36:04;99596.72;;;13.96;68.03
59545;BME280;45368;55.002;-1.592;2022-10-23T10:38:43;99589.30;;;14.17;67.88
59545;BME280;45368;55.002;-1.592;2022-10-23T10:42:28;99588.96;;;14.18;66.83
59545;BME280;45368;55.002;-1.592;2022-10-23T10:45:17;99583.89;;;14.27;65.45
59545;BME280;45368;55.002;-1.592;2022-10-23T10:47:58;99583.80;;;15.06;63.81
59545;BME280;45368;55.002;-1.592;2022-10-23T10:50:32;99576.44;;;15.02;63.68
59545;BME280;45368;55.002;-1.592;2022-10-23T10:53:11;99571.93;;;14.42;64.94
59545;BME280;45368;55.002;-1.592;2022-10-23T10:55:41;99570.30;;;14.98;63.40
59545;BME280;45368;55.002;-1.592;2022-10-23T10:58:16;99564.37;;;15.77;61.91
59545;BME280;45368;55.002;-1.592;2022-10-23T11:00:51;99560.50;;;15.22;61.33
59545;BME280;45368;55.002;-1.592;2022-10-23T11:03:29;99554.15;;;15.39;62.19
59545;BME280;45368;55.002;-1.592;2022-10-23T11:06:02;99549.45;;;15.59;61.96
59545;BME280;45368;55.002;-1.592;2022-10-23T11:08:34;99541.74;;;15.30;62.45
59545;BME280;45368;55.002;-1.592;2022-10-23T11:11:06;99537.62;;;14.81;64.09
59545;BME280;45368;55.002;-1.592;2022-10-23T11:13:39;99532.68;;;14.85;63.83
59545;BME280;45368;55.002;-1.592;2022-10-23T11:16:11;99525.92;;;15.09;64.17
59545;BME280;45368;55.002;-1.592;2022-10-23T11:18:43;99518.09;;;14.65;64.76
59545;BME280;45368;55.002;-1.592;2022-10-23T11:21:23;99510.83;;;14.89;64.25
59545;BME280;45368;55.002;-1.592;2022-10-23T11:24:17;99514.16;;;13.92;67.81
59545;BME280;45368;55.002;-1.592;2022-10-23T11:26:57;99509.03;;;14.25;67.74
59545;BME280;45368;55.002;-1.592;2022-10-23T11:29:45;99503.21;;;13.92;68.67
59545;BME280;45368;55.002;-1.592;2022-10-23T11:32:31;99499.87;;;13.35;70.10
59545;BME280;45368;55.002;-1.592;2022-10-23T11:35:13;99489.05;;;13.88;68.72
59545;BME280;45368;55.002;-1.592;2022-10-23T11:37:57;99492.74;;;13.10;72.48
59545;BME280;45368;55.002;-1.592;2022-10-23T11:40:25;99492.87;;;13.04;73.59
59545;BME280;45368;55.002;-1.592;2022-10-23T11:42:53;99487.22;;;12.70;73.58
59545;BME280;45368;55.002;-1.592;2022-10-23T11:45:31;99483.98;;;12.86;73.21
59545;BME280;45368;55.002;-1.592;2022-10-23T11:48:00;99472.88;;;13.34;70.88
59545;BME280;45368;55.002;-1.592;2022-10-23T11:50:31;99474.43;;;13.07;71.08
59545;BME280;45368;55.002;-1.592;2022-10-23T11:53:03;99469.32;;;13.39;70.64
59545;BME280;45368;55.002;-1.592;2022-10-23T11:55:31;99464.66;;;13.23;71.93
59545;BME280;45368;55.002;-1.592;2022-10-23T11:58:14;99454.55;;;13.07;71.78
59545;BME280;45368;55.002;-1.592;2022-10-23T12:00:53;99445.98;;;13.19;72.30
59545;BME280;45368;55.002;-1.592;2022-10-23T12:03:23;99437.39;;;13.28;72.91
59545;BME280;45368;55.002;-1.592;2022-10-23T12:05:59;99424.85;;;13.20;72.02
59545;BME280;45368;55.002;-1.592;2022-10-23T12:08:29;99418.63;;;13.43;71.42
59545;BME280;45368;55.002;-1.592;2022-10-23T12:10:56;99411.91;;;13.40;72.16
59545;BME280;45368;55.002;-1.592;2022-10-23T12:13:41;99406.59;;;13.05;74.17
59545;BME280;45368;55.002;-1.592;2022-10-23T12:16:09;99399.02;;;12.95;73.15
59545;BME280;45368;55.002;-1.592;2022-10-23T12:18:47;99394.84;;;12.90;73.43
59545;BME280;45368;55.002;-1.592;2022-10-23T12:21:17;99385.67;;;13.28;73.26
59545;BME280;45368;55.002;-1.592;2022-10-23T12:23:54;99376.64;;;13.20;72.80
59545;BME280;45368;55.002;-1.592;2022-10-23T12:27:38;99369.15;;;13.27;72.73
59545;BME280;45368;55.002;-1.592;2022-10-23T12:30:20;99363.66;;;13.14;73.17
59545;BME280;45368;55.002;-1.592;2022-10-23T12:33:26;99357.05;;;13.18;74.29
59545;BME280;45368;55.002;-1.592;2022-10-23T12:36:14;99350.40;;;12.67;74.89
59545;BME280;45368;55.002;-1.592;2022-10-23T12:38:45;99346.85;;;12.64;75.28
59545;BME280;45368;55.002;-1.592;2022-10-23T12:41:14;99339.37;;;13.00;74.80
59545;BME280;45368;55.002;-1.592;2022-10-23T12:43:44;99330.89;;;13.33;73.44
59545;BME280;45368;55.002;-1.592;2022-10-23T12:46:27;99323.36;;;13.06;75.32
59545;BME280;45368;55.002;-1.592;2022-10-23T12:48:57;99318.94;;;12.96;75.11
59545;BME280;45368;55.002;-1.592;2022-10-23T12:51:28;99316.87;;;12.95;75.32
59545;BME280;45368;55.002;-1.592;2022-10-23T12:53:56;99308.62;;;12.81;76.53
59545;BME280;45368;55.002;-1.592;2022-10-23T12:56:25;99297.95;;;12.96;76.02
59545;BME280;45368;55.002;-1.592;2022-10-23T12:58:54;99294.97;;;12.57;77.60
59545;BME280;45368;55.002;-1.592;2022-10-23T13:01:25;99286.47;;;12.93;76.76
59545;BME280;45368;55.002;-1.592;2022-10-23T13:03:56;99279.61;;;12.51;76.62
59545;BME280;45368;55.002;-1.592;2022-10-23T13:06:24;99278.46;;;12.72;76.62
59545;BME280;45368;55.002;-1.592;2022-10-23T13:08:53;99266.76;;;12.89;76.53
59545;BME280;45368;55.002;-1.592;2022-10-23T13:11:21;99252.28;;;12.92;76.63
59545;BME280;45368;55.002;-1.592;2022-10-23T13:13:49;99247.22;;;12.69;76.02